Flight Track Log - Related Links

Times and Time Zones

All times are in EST time to prevent confusion due to time zone crossing. See the UPS1122 flight status page for this flight to view local times or setup timezone preferences in your user account.

Time Position Orientation Groundspeed Altitude Reporting Facility
EST Latitude Longitude Course Direction KTS MPH feet Rate Location/Type
Fri 06:33:07 AM 42.0864 -72.8814 315° West 255 293 9,600  Level FlightAware ADS-B (KSNC)
Fri 06:33:28 AM 42.0998 -72.8994 315° West 256 295 9,700 162 Climbing FlightAware ADS-B (KSNC)
Fri 06:33:44 AM 42.1177 -72.9235 315° West 252 290 9,700  Level FlightAware ADS-B (KSNC)
Fri 06:34:25 AM 42.1443 -72.9597 315° West 251 289 9,700  Level FlightAware ADS-B (KSNC)
Fri 06:35:01 AM 42.1797 -73.0090 314° West 249 287 9,700 156 Level FlightAware ADS-B (KSNC)
Fri 06:35:42 AM 42.2056 -73.0492 314° West 248 285 9,900 237 Climbing Boston Center
Fri 06:36:17 AM 42.2364 -73.0886 317° Northwest 248 285 10,000  Climbing Boston Center
Fri 06:36:43 AM 42.2514 -73.1158 307° West 243 280 9,900  Descending Boston Center
Fri 06:37:19 AM 42.2847 -73.1525 321° Northwest 245 282 10,000  Climbing Boston Center
Fri 06:37:44 AM 42.3019 -73.1814 309° West 245 282 9,900  Descending Boston Center
Fri 06:38:20 AM 42.3317 -73.2186 317° Northwest 245 282 10,000 98 Climbing Boston Center
Fri 06:38:45 AM 42.3514 -73.2522 308° West 245 282 10,000 -197 Level Boston Center
Fri 06:39:21 AM 42.3786 -73.2883 316° Northwest 249 287 9,800 -900 Descending Boston Center
Fri 06:39:45 AM 42.3997 -73.3172 315° West 244 281 9,100 -1,475 Descending Boston Center
Fri 06:40:22 AM 42.4308 -73.3533 319° Northwest 238 274 8,300 -1,322 Descending Boston Center
Fri 06:40:44 AM 42.4464 -73.3789 310° West 239 275 7,800 -1,279 Descending Boston Center
Fri 06:41:23 AM 42.4756 -73.4164 317° Northwest 231 266 7,000 -1,238 Descending Boston Center
Fri 06:41:47 AM 42.4911 -73.4400 312° West 230 265 6,500 -1,082 Descending Boston Center
Fri 06:42:24 AM 42.5219 -73.4775 318° Northwest 232 267 5,900 -1,119 Descending Boston Center
Fri 06:42:46 AM 42.5433 -73.4950 329° Northwest 242 278 5,400 -1,345 Descending Boston Center
Fri 06:43:22 AM 42.5806 -73.5244 330° Northwest 244 281 4,600 -1,300 Descending Boston Center
Fri 06:43:46 AM 42.6017 -73.5406 331° Northwest 243 280 4,100 -968 Descending Boston Center
Fri 06:44:24 AM 42.6383 -73.5686 331° Northwest 240 276 3,600 -800 Descending Boston Center
Fri 06:44:46 AM 42.6581 -73.5856 328° Northwest 237 273 3,300 -590 Descending Boston Center
Fri 06:45:25 AM 42.6958 -73.6133 332° Northwest 223 257 3,000 -269 Descending Boston Center
Fri 06:45:53 AM 42.7167 -73.6283 332° Northwest 195 224 3,000  Level Boston Center
Fri 06:46:24 AM 42.7411 -73.6486 329° Northwest 193 222 3,000  Level Boston Center
Fri 06:46:48 AM 42.7586 -73.6569 341° North 178 205 3,000  Level Boston Center
Fri 06:47:27 AM 42.7861 -73.6789 330° Northwest 184 212 3,000  Level Boston Center
Fri 06:47:48 AM 42.8022 -73.6892 335° Northwest 173 199 3,000 -300 Level Boston Center
Fri 06:48:27 AM 42.8250 -73.7053 333° Northwest 158 182 2,700 -667 Descending Boston Center
Fri 06:48:51 AM 42.8356 -73.7178 319° Northwest 142 163 2,300 -677 Descending Boston Center
Fri 06:49:29 AM 42.8339 -73.7492 266° West 136 157 2,000 -545 Descending Boston Center
Fri 06:49:57 AM 42.8294 -73.7742 256° West 126 145 1,700 -517 Descending Boston Center
Fri 06:50:27 AM 42.8186 -73.7942 234° Southwest 124 143 1,500 -393 Descending Boston Center
Fri 06:50:58 AM 42.8069 -73.8044 213° Southwest 116 133 1,300 -492 Descending Boston Center
Fri 06:51:28 AM 42.7883 -73.8072 186° South 121 139 1,000 -764 Descending Boston Center
Fri 06:51:53 AM 42.7767 -73.8058 175° South 123 142 600 -787 Descending Boston Center
Fri 06:52:29 AM 42.7542 -73.8058 180° South 123 142 200 -667 Descending Boston Center

Login

Don't have an account? Register now (free) for customized features, flight alerts, and more!